Time;durP1;ratioP1;P1;durP2;ratioP2;P2;SDS_P1;SDS_P2;PMS_P1;PMS_P2;Temp;Humidity;BMP_temperature;BMP_pressure;BME280_temperature;BME280_humidity;BME280_pressure;Samples;Min_cycle;Max_cycle;Signal;HPM_P1;HPM_P2
2023/06/23 00:00:00;;;;;;;91.67;2.73;;;24.90;39.50;;;;;;4974801;28;20457;-70
2023/06/23 00:02:27;;;;;;;90.20;2.27;;;24.80;40.50;;;;;;4974812;28;20407;-72
2023/06/23 00:04:53;;;;;;;90.67;2.63;;;24.70;40.20;;;;;;4974406;28;20455;-70
2023/06/23 00:07:19;;;;;;;89.87;2.20;;;25.00;39.40;;;;;;4974540;28;20421;-70
2023/06/23 00:09:44;;;;;;;90.47;2.50;;;24.90;39.60;;;;;;4974061;28;20213;-71
2023/06/23 00:12:10;;;;;;;90.37;2.10;;;25.00;39.60;;;;;;4974958;28;20187;-71
2023/06/23 00:14:36;;;;;;;90.67;2.40;;;24.90;40.20;;;;;;4974143;28;20172;-70
2023/06/23 00:17:02;;;;;;;90.87;2.33;;;24.80;40.50;;;;;;4973926;28;20416;-72
2023/06/23 00:19:31;;;;;;;90.33;2.17;;;24.20;43.00;;;;;;4974164;28;20173;-72
2023/06/23 00:21:57;;;;;;;90.60;2.43;;;23.00;48.50;;;;;;4957097;28;20429;-70
2023/06/23 00:24:23;;;;;;;90.80;2.30;;;22.40;53.60;;;;;;4973898;28;20456;-70
2023/06/23 00:26:49;;;;;;;90.30;2.17;;;22.40;57.70;;;;;;4974036;28;20977;-71
2023/06/23 00:29:15;;;;;;;90.83;2.37;;;22.30;60.00;;;;;;4974125;28;20174;-72
2023/06/23 00:31:41;;;;;;;90.70;2.40;;;22.20;62.20;;;;;;4974156;28;20408;-71
2023/06/23 00:34:06;;;;;;;92.07;2.20;;;22.10;63.10;;;;;;4974310;28;20175;-72
2023/06/23 00:36:32;;;;;;;90.80;1.93;;;22.20;62.60;;;;;;4973837;28;20552;-70
2023/06/23 00:38:57;;;;;;;93.07;2.77;;;22.60;60.40;;;;;;4973966;28;20249;-71
2023/06/23 00:41:23;;;;;;;91.27;2.30;;;22.10;62.30;;;;;;4974036;28;20194;-71
2023/06/23 00:43:50;;;;;;;91.40;2.27;;;21.90;66.20;;;;;;4973700;28;20241;-73
2023/06/23 00:46:24;;;;;;;91.57;2.43;;;22.40;62.70;;;;;;4973648;28;20573;-70
2023/06/23 00:48:49;;;;;;;91.57;2.30;;;22.60;62.70;;;;;;4973521;28;20943;-71
2023/06/23 00:51:16;;;;;;;91.47;2.27;;;23.00;61.20;;;;;;4973958;28;20466;-71
2023/06/23 00:53:48;;;;;;;91.70;2.20;;;23.00;59.70;;;;;;4973925;28;20171;-70
2023/06/23 00:56:21;;;;;;;91.87;2.20;;;22.10;65.50;;;;;;4973816;28;20534;-70
2023/06/23 00:58:48;;;;;;;92.70;2.70;;;21.90;69.20;;;;;;4973603;28;20704;-70
2023/06/23 01:01:13;;;;;;;91.67;2.20;;;22.40;65.90;;;;;;4973425;28;20433;-70
2023/06/23 01:03:40;;;;;;;92.37;2.40;;;22.60;63.20;;;;;;4973269;28;21201;-71
2023/06/23 01:06:38;;;;;;;92.73;2.57;;;23.10;60.70;;;;;;4973494;28;20410;-73
2023/06/23 01:09:12;;;;;;;92.50;2.33;;;23.30;57.80;;;;;;4968073;28;20485;-71
2023/06/23 01:11:47;;;;;;;92.37;2.23;;;23.40;58.40;;;;;;4973122;28;20880;-71
2023/06/23 01:14:23;;;;;;;92.50;2.40;;;23.60;57.70;;;;;;4973396;28;20899;-70
2023/06/23 01:16:57;;;;;;;92.17;2.10;;;23.00;59.00;;;;;;4973249;28;20853;-70
2023/06/23 01:19:44;;;;;;;92.37;2.30;;;23.10;59.60;;;;;;4973140;28;20417;-70
2023/06/23 01:22:33;;;;;;;92.80;2.43;;;23.50;54.70;;;;;;4955756;28;20934;-71
2023/06/23 01:25:17;;;;;;;92.60;2.50;;;23.70;56.70;;;;;;4972848;28;20468;-70
2023/06/23 01:28:06;;;;;;;92.27;2.13;;;23.50;55.50;;;;;;4972508;28;20894;-71
2023/06/23 01:30:35;;;;;;;92.60;2.30;;;23.00;57.30;;;;;;4972593;28;20990;-70
2023/06/23 01:33:08;;;;;;;92.50;2.17;;;23.10;56.30;;;;;;4973172;28;20429;-70
2023/06/23 01:35:42;;;;;;;92.83;2.50;;;23.10;56.30;;;;;;4972707;28;20485;-71
2023/06/23 01:38:18;;;;;;;92.87;2.40;;;23.00;56.70;;;;;;4973286;28;20403;-70
2023/06/23 01:40:51;;;;;;;93.73;2.30;;;23.30;54.30;;;;;;4972766;28;20434;-73
2023/06/23 01:43:29;;;;;;;93.17;2.60;;;23.40;53.00;;;;;;4972863;28;20791;-70
2023/06/23 01:46:03;;;;;;;93.93;2.57;;;22.50;60.10;;;;;;4972898;28;20402;-69
2023/06/23 01:48:32;;;;;;;92.97;2.20;;;21.40;72.00;;;;;;4973035;28;20881;-72
2023/06/23 01:50:58;;;;;;;92.90;2.13;;;20.80;79.60;;;;;;4972901;28;21098;-70
2023/06/23 01:53:26;;;;;;;92.90;1.90;;;20.10;89.70;;;;;;4972903;28;20418;-69
2023/06/23 01:55:53;;;;;;;93.37;2.23;;;19.90;90.30;;;;;;4972472;28;20213;-69
2023/06/23 01:58:21;;;;;;;93.57;2.30;;;19.80;90.40;;;;;;4973198;28;20409;-70
2023/06/23 02:00:48;;;;;;;93.50;2.27;;;19.80;87.60;;;;;;4972572;28;20433;-70
2023/06/23 02:03:15;;;;;;;93.40;2.20;;;19.60;87.60;;;;;;4972647;28;20434;-69
2023/06/23 02:05:45;;;;;;;93.87;2.40;;;19.80;86.30;;;;;;4972179;28;20904;-70
2023/06/23 02:08:12;;;;;;;93.50;2.20;;;19.50;86.80;;;;;;4972772;28;20428;-70
2023/06/23 02:10:39;;;;;;;93.90;2.50;;;19.70;84.60;;;;;;4972323;28;20461;-69
2023/06/23 02:13:06;;;;;;;93.80;2.47;;;19.80;81.50;;;;;;4972788;28;20477;-70
2023/06/23 02:15:33;;;;;;;93.87;2.40;;;19.60;81.40;;;;;;4972004;28;20975;-69
2023/06/23 02:18:00;;;;;;;93.67;2.30;;;19.60;81.60;;;;;;4972578;28;20481;-71
2023/06/23 02:20:28;;;;;;;94.07;2.60;;;19.70;78.20;;;;;;4972346;28;20443;-70
2023/06/23 02:22:55;;;;;;;94.00;2.50;;;19.70;76.60;;;;;;4972607;28;20423;-70
2023/06/23 02:25:22;;;;;;;93.70;2.10;;;19.80;79.00;;;;;;4972131;28;20471;-71
2023/06/23 02:27:48;;;;;;;93.90;2.30;;;20.00;73.10;;;;;;4972474;28;20416;-70
2023/06/23 02:30:17;;;;;;;94.03;2.40;;;20.00;74.40;;;;;;4972254;28;20447;-70
2023/06/23 02:32:45;;;;;;;94.70;2.77;;;19.90;77.60;;;;;;4972370;28;20516;-70
2023/06/23 02:35:13;;;;;;;93.97;2.40;;;19.90;74.20;;;;;;4972076;28;20419;-70
2023/06/23 02:37:43;;;;;;;93.73;2.07;;;19.90;75.90;;;;;;4972438;28;20929;-72
2023/06/23 02:40:16;;;;;;;94.30;2.50;;;20.20;71.30;;;;;;4974753;28;20444;-70
2023/06/23 02:42:47;;;;;;;94.40;2.70;;;20.20;71.20;;;;;;4975990;28;20508;-71
2023/06/23 02:45:23;;;;;;;94.70;2.90;;;20.60;69.50;;;;;;4975833;28;20474;-70
2023/06/23 02:47:52;;;;;;;93.67;2.00;;;20.60;68.90;;;;;;4976011;28;20501;-70
2023/06/23 02:50:22;;;;;;;94.50;2.60;;;20.70;69.60;;;;;;4975779;28;20469;-72
2023/06/23 02:52:52;;;;;;;93.80;2.10;;;20.80;65.00;;;;;;4975933;28;21003;-70
2023/06/23 02:55:20;;;;;;;94.23;2.57;;;20.60;67.20;;;;;;4975701;28;20421;-70
2023/06/23 02:57:49;;;;;;;94.47;2.80;;;20.60;67.70;;;;;;4975897;28;20424;-71
2023/06/23 03:00:22;;;;;;;94.10;2.30;;;20.70;67.30;;;;;;4975642;28;20447;-71
2023/06/23 03:02:51;;;;;;;94.00;2.57;;;20.80;65.90;;;;;;4975602;28;20495;-70
2023/06/23 03:05:17;;;;;;;94.03;2.50;;;20.70;68.90;;;;;;4975453;28;20504;-70
2023/06/23 03:07:42;;;;;;;94.00;2.43;;;21.30;63.60;;;;;;4975673;28;20773;-70
2023/06/23 03:10:08;;;;;;;94.53;2.70;;;21.10;62.20;;;;;;4975534;28;20213;-72
2023/06/23 03:12:34;;;;;;;94.13;2.40;;;20.90;64.90;;;;;;4975631;28;20175;-73
2023/06/23 03:15:01;;;;;;;93.80;2.30;;;21.00;65.60;;;;;;4975639;28;20193;-70
2023/06/23 03:17:31;;;;;;;94.30;2.63;;;21.60;60.40;;;;;;5004033;23;20503;-79
2023/06/23 03:20:17;;;;;;;94.67;2.87;;;21.70;61.60;;;;;;4991980;28;20973;-78
2023/06/23 03:22:47;;;;;;;94.10;2.50;;;21.80;58.10;;;;;;4988655;28;21037;-77
2023/06/23 03:25:33;;;;;;;94.17;2.40;;;21.70;59.50;;;;;;4995173;28;20449;-77
2023/06/23 03:28:06;;;;;;;94.03;2.30;;;21.80;59.60;;;;;;4995031;28;20440;-78
2023/06/23 03:30:47;;;;;;;95.97;2.87;;;22.20;53.90;;;;;;4995184;28;20411;-77
2023/06/23 03:33:23;;;;;;;94.17;2.50;;;22.00;53.90;;;;;;4995224;28;20417;-77
2023/06/23 03:35:51;;;;;;;94.30;2.53;;;21.70;55.50;;;;;;4995151;28;20769;-77
2023/06/23 03:38:21;;;;;;;94.67;2.67;;;21.30;60.60;;;;;;4995145;28;20874;-77
2023/06/23 03:40:53;;;;;;;94.87;3.00;;;21.70;59.50;;;;;;4995215;28;20429;-76
2023/06/23 03:43:26;;;;;;;94.30;2.50;;;21.20;59.00;;;;;;4995099;28;20490;-77
2023/06/23 03:45:57;;;;;;;94.63;2.60;;;21.00;60.30;;;;;;4994994;28;20534;-77
2023/06/23 03:48:26;;;;;;;94.20;2.43;;;21.50;57.70;;;;;;4995268;28;20527;-78
2023/06/23 03:50:53;;;;;;;94.40;2.47;;;22.00;54.00;;;;;;4992858;28;20415;-77
2023/06/23 03:53:20;;;;;;;94.47;2.63;;;22.20;55.70;;;;;;4995176;28;20477;-77
2023/06/23 03:55:46;;;;;;;94.40;2.60;;;22.10;56.50;;;;;;4994854;28;20941;-77
2023/06/23 03:58:13;;;;;;;94.47;2.37;;;21.90;54.70;;;;;;4994980;28;20452;-77
2023/06/23 04:00:40;;;;;;;94.10;2.30;;;22.00;55.50;;;;;;4995546;28;20428;-77
2023/06/23 04:03:08;;;;;;;94.27;2.30;;;22.10;56.00;;;;;;4996153;28;20411;-77
2023/06/23 04:05:36;;;;;;;94.07;2.30;;;22.20;51.80;;;;;;4995064;28;20459;-77
2023/06/23 04:08:04;;;;;;;94.30;2.43;;;21.40;59.20;;;;;;4994539;28;20797;-78
2023/06/23 04:10:30;;;;;;;94.43;2.47;;;21.50;58.30;;;;;;4994329;28;20998;-77
2023/06/23 04:12:58;;;;;;;94.60;2.43;;;21.60;56.00;;;;;;4994456;28;20408;-78
2023/06/23 04:15:26;;;;;;;98.10;2.67;;;21.40;56.90;;;;;;4994137;28;20497;-78
2023/06/23 04:17:55;;;;;;;94.90;2.40;;;20.90;58.70;;;;;;4994229;28;20451;-77
2023/06/23 04:20:23;;;;;;;94.47;2.50;;;21.40;56.80;;;;;;4994458;28;20408;-77
2023/06/23 04:22:49;;;;;;;94.47;2.43;;;21.70;53.90;;;;;;4994683;28;20411;-77
2023/06/23 04:25:18;;;;;;;94.47;2.50;;;21.80;53.90;;;;;;4993850;28;20447;-74
2023/06/23 04:27:47;;;;;;;94.80;2.90;;;21.60;53.60;;;;;;4994107;28;20424;-74
2023/06/23 04:30:15;;;;;;;95.27;2.87;;;21.80;54.60;;;;;;4993897;28;20918;-74
2023/06/23 04:32:42;;;;;;;95.30;3.07;;;21.90;52.30;;;;;;4994445;28;20490;-77
2023/06/23 04:35:08;;;;;;;94.90;2.90;;;22.10;50.70;;;;;;4993772;28;20477;-78
2023/06/23 04:37:41;;;;;;;95.07;2.90;;;22.40;49.50;;;;;;4993800;28;20436;-78
2023/06/23 04:40:28;;;;;;;95.73;2.60;;;22.60;48.80;;;;;;4993822;28;20932;-77
2023/06/23 04:43:02;;;;;;;94.20;2.27;;;22.10;50.20;;;;;;4993921;28;20417;-76
2023/06/23 04:45:30;;;;;;;96.03;3.20;;;21.50;50.20;;;;;;4993667;28;20884;-76
2023/06/23 04:48:01;;;;;;;94.90;2.77;;;20.40;59.90;;;;;;4993896;28;20429;-76
2023/06/23 04:50:32;;;;;;;94.27;2.27;;;20.60;61.10;;;;;;4993734;28;20496;-76
2023/06/23 04:53:05;;;;;;;94.50;2.53;;;20.80;57.00;;;;;;4993615;28;20952;-76
2023/06/23 04:55:34;;;;;;;94.47;2.60;;;21.30;54.70;;;;;;4993229;28;20427;-76
2023/06/23 04:58:03;;;;;;;94.87;2.90;;;20.80;56.50;;;;;;4993522;28;20444;-75
2023/06/23 05:00:30;;;;;;;94.70;2.70;;;21.20;54.40;;;;;;4993478;28;21035;-75
2023/06/23 05:02:57;;;;;;;94.70;2.90;;;21.60;51.70;;;;;;4992501;28;20413;-76
2023/06/23 05:05:27;;;;;;;95.77;3.23;;;21.30;52.90;;;;;;4991162;28;20443;-76
2023/06/23 05:07:55;;;;;;;95.07;2.70;;;21.60;50.90;;;;;;4991833;28;20427;-75
2023/06/23 05:10:23;;;;;;;94.17;2.50;;;21.30;53.20;;;;;;4991532;28;20966;-75
2023/06/23 05:12:51;;;;;;;94.50;2.60;;;21.30;51.90;;;;;;4993230;28;20411;-75
2023/06/23 05:15:19;;;;;;;95.47;3.23;;;21.20;54.30;;;;;;4992995;28;20818;-74
2023/06/23 05:17:48;;;;;;;95.27;2.87;;;21.20;52.90;;;;;;4992709;28;20455;-75
2023/06/23 05:20:17;;;;;;;96.50;3.13;;;21.10;54.30;;;;;;4993178;28;20804;-75
2023/06/23 05:22:46;;;;;;;94.60;2.63;;;21.30;52.50;;;;;;4993107;28;20931;-75
2023/06/23 05:25:12;;;;;;;96.37;3.80;;;21.40;51.60;;;;;;4992674;28;20965;-74
2023/06/23 05:27:44;;;;;;;94.47;2.50;;;21.10;55.40;;;;;;4992819;28;20421;-75
2023/06/23 05:30:17;;;;;;;94.60;2.50;;;21.60;52.20;;;;;;4992862;28;20415;-75
2023/06/23 05:32:44;;;;;;;94.70;2.90;;;21.80;51.70;;;;;;4993022;28;20396;-74
2023/06/23 05:35:11;;;;;;;94.97;3.10;;;21.70;50.70;;;;;;4992625;28;20430;-74
2023/06/23 05:37:39;;;;;;;94.87;3.07;;;21.50;53.20;;;;;;4992631;28;20485;-74
2023/06/23 05:40:08;;;;;;;95.90;3.37;;;22.00;50.80;;;;;;4992868;28;20984;-74
2023/06/23 05:42:34;;;;;;;94.57;2.80;;;21.20;52.90;;;;;;4992689;28;20832;-75
2023/06/23 05:45:01;;;;;;;94.27;2.50;;;20.90;56.80;;;;;;4991176;28;20546;-75
2023/06/23 05:47:31;;;;;;;95.20;2.90;;;21.30;54.00;;;;;;4992722;28;20204;-74
2023/06/23 05:49:59;;;;;;;95.07;3.10;;;21.30;55.70;;;;;;4992503;28;20463;-74
2023/06/23 05:52:27;;;;;;;95.93;3.40;;;21.30;53.70;;;;;;4992713;28;20418;-75
2023/06/23 05:54:55;;;;;;;95.97;2.80;;;21.30;53.90;;;;;;4992314;28;20991;-75
2023/06/23 05:57:26;;;;;;;95.10;3.03;;;21.50;53.20;;;;;;4992317;28;20864;-75
2023/06/23 06:00:01;;;;;;;97.60;3.50;;;21.70;50.50;;;;;;4992573;28;20420;-75
2023/06/23 06:02:31;;;;;;;95.00;2.80;;;21.80;49.40;;;;;;4992638;28;20870;-75
2023/06/23 06:05:00;;;;;;;94.37;2.60;;;21.80;48.70;;;;;;4992205;28;20820;-75
2023/06/23 06:07:27;;;;;;;95.17;3.40;;;21.40;51.30;;;;;;4992510;28;20946;-75
2023/06/23 06:09:55;;;;;;;94.67;2.90;;;21.00;52.10;;;;;;4992331;28;20565;-75
2023/06/23 06:12:22;;;;;;;94.80;2.90;;;21.10;53.90;;;;;;4992371;28;20423;-75
2023/06/23 06:14:50;;;;;;;95.07;3.10;;;21.50;52.40;;;;;;4994226;28;20421;-75
2023/06/23 06:17:18;;;;;;;94.30;2.47;;;21.50;49.30;;;;;;4996362;28;20491;-74
2023/06/23 06:19:45;;;;;;;97.80;3.57;;;21.80;51.00;;;;;;4996322;28;20418;-75
2023/06/23 06:22:12;;;;;;;96.20;3.77;;;21.60;50.90;;;;;;4996105;28;20415;-76
2023/06/23 06:24:40;;;;;;;99.87;3.70;;;22.00;49.30;;;;;;4995968;28;20474;-75
2023/06/23 06:27:08;;;;;;;94.37;2.67;;;22.20;47.60;;;;;;4996313;28;20459;-75
2023/06/23 06:29:36;;;;;;;95.37;3.13;;;21.80;49.10;;;;;;4996104;28;20396;-75
2023/06/23 06:32:05;;;;;;;97.37;3.67;;;21.70;50.20;;;;;;4996283;28;20405;-75
2023/06/23 06:34:32;;;;;;;95.17;2.93;;;21.40;51.40;;;;;;4996009;28;20417;-75
2023/06/23 06:37:00;;;;;;;94.43;2.80;;;21.40;53.00;;;;;;4995888;28;20511;-75
2023/06/23 06:39:28;;;;;;;98.97;3.67;;;21.30;51.80;;;;;;4996152;28;20414;-74
2023/06/23 06:41:57;;;;;;;96.20;3.30;;;21.40;52.70;;;;;;4995835;28;20408;-75
2023/06/23 06:44:22;;;;;;;95.57;3.13;;;21.80;50.50;;;;;;4995972;28;20455;-75
2023/06/23 06:46:50;;;;;;;94.97;3.10;;;22.00;49.60;;;;;;4994339;28;20437;-75
2023/06/23 06:49:17;;;;;;;94.97;2.90;;;21.50;51.00;;;;;;4995937;28;20188;-75
2023/06/23 06:51:44;;;;;;;95.20;3.13;;;21.60;51.20;;;;;;4995897;28;20491;-75
2023/06/23 06:54:10;;;;;;;94.20;2.80;;;21.40;52.40;;;;;;4995898;28;20416;-75
2023/06/23 06:56:36;;;;;;;95.57;3.43;;;21.90;51.60;;;;;;4995374;28;20417;-75
2023/06/23 06:59:03;;;;;;;94.77;3.07;;;21.90;50.40;;;;;;4995647;28;20181;-75
2023/06/23 07:01:29;;;;;;;94.67;3.20;;;21.30;52.10;;;;;;4995798;28;20420;-74
2023/06/23 07:03:55;;;;;;;94.70;3.07;;;21.70;51.40;;;;;;4995602;28;20484;-75
2023/06/23 07:06:21;;;;;;;95.70;3.50;;;21.80;53.20;;;;;;4995433;28;20432;-74
2023/06/23 07:08:47;;;;;;;94.87;2.87;;;22.10;48.80;;;;;;4995341;28;20478;-75
2023/06/23 07:11:13;;;;;;;95.20;3.37;;;21.60;51.40;;;;;;4995485;28;20176;-75
2023/06/23 07:13:39;;;;;;;95.17;3.20;;;21.70;51.30;;;;;;4995958;28;20171;-75
2023/06/23 07:16:05;;;;;;;94.47;2.97;;;22.00;49.20;;;;;;4995158;28;20409;-75
2023/06/23 07:18:31;;;;;;;94.47;3.17;;;22.30;48.90;;;;;;4994988;28;20466;-75
2023/06/23 07:20:56;;;;;;;95.67;3.30;;;22.50;47.80;;;;;;4995296;28;20982;-75
2023/06/23 07:23:23;;;;;;;94.30;3.10;;;22.40;48.10;;;;;;4995379;28;20253;-75
2023/06/23 07:25:48;;;;;;;95.50;3.60;;;22.40;47.50;;;;;;4993529;28;20608;-75
2023/06/23 07:28:14;;;;;;;94.10;2.63;;;23.00;46.00;;;;;;4995271;28;20430;-77
2023/06/23 07:30:39;;;;;;;94.33;2.90;;;22.30;46.30;;;;;;4995164;28;20174;-74
2023/06/23 07:33:06;;;;;;;97.63;3.33;;;22.50;47.70;;;;;;4994901;28;20695;-74
2023/06/23 07:35:32;;;;;;;95.10;3.43;;;22.10;48.40;;;;;;4995204;28;20548;-75
2023/06/23 07:37:57;;;;;;;94.37;3.07;;;22.30;48.40;;;;;;4994965;28;20470;-75
2023/06/23 07:40:23;;;;;;;94.70;2.83;;;22.70;46.00;;;;;;4995009;28;20507;-75
2023/06/23 07:42:48;;;;;;;94.20;3.43;;;22.40;46.20;;;;;;4994920;28;20646;-74
2023/06/23 07:45:14;;;;;;;95.00;3.70;;;21.80;48.70;;;;;;4994665;28;20634;-75
2023/06/23 07:47:40;;;;;;;96.13;3.77;;;21.60;50.80;;;;;;4994385;28;20191;-74
2023/06/23 07:50:06;;;;;;;94.77;3.10;;;21.50;51.50;;;;;;4994944;28;20181;-74
2023/06/23 07:52:31;;;;;;;95.23;3.20;;;21.70;51.50;;;;;;4994693;28;20227;-74
2023/06/23 07:54:57;;;;;;;94.00;3.30;;;21.90;50.00;;;;;;4994470;28;20420;-75
2023/06/23 07:57:23;;;;;;;94.97;3.80;;;21.80;51.30;;;;;;4994544;28;20202;-78
2023/06/23 07:59:48;;;;;;;94.17;3.17;;;22.30;48.90;;;;;;4994666;28;20202;-74
2023/06/23 08:02:14;;;;;;;95.10;3.90;;;22.20;49.00;;;;;;4994428;28;20170;-74
2023/06/23 08:04:39;;;;;;;94.07;3.17;;;21.70;50.60;;;;;;4994232;28;20206;-74
2023/06/23 08:07:05;;;;;;;93.83;3.40;;;21.70;49.50;;;;;;4994237;28;20197;-74
2023/06/23 08:09:31;;;;;;;95.00;3.13;;;21.60;49.70;;;;;;4994474;28;20178;-75
2023/06/23 08:11:56;;;;;;;93.27;2.70;;;21.50;50.70;;;;;;4994438;28;20519;-74
2023/06/23 08:14:22;;;;;;;95.20;3.27;;;21.20;51.70;;;;;;4994457;28;20179;-74
2023/06/23 08:16:48;;;;;;;93.13;2.63;;;21.20;49.50;;;;;;4993725;28;20197;-74
2023/06/23 08:19:14;;;;;;;93.37;2.83;;;21.20;50.30;;;;;;4994180;28;20166;-74
2023/06/23 08:21:42;;;;;;;93.37;2.70;;;21.00;49.30;;;;;;4994294;28;20410;-74
2023/06/23 08:24:07;;;;;;;93.30;2.70;;;21.20;50.60;;;;;;4994170;28;20495;-74
2023/06/23 08:26:33;;;;;;;93.20;2.77;;;21.20;46.40;;;;;;4993933;28;20410;-74
2023/06/23 08:28:58;;;;;;;92.43;2.50;;;21.30;44.50;;;;;;4994363;28;20181;-74
2023/06/23 08:31:24;;;;;;;93.17;2.80;;;21.10;49.10;;;;;;4993713;28;20646;-74
2023/06/23 08:33:50;;;;;;;93.43;3.30;;;21.20;45.90;;;;;;4994162;28;20542;-75
2023/06/23 08:36:16;;;;;;;94.37;3.30;;;21.40;46.10;;;;;;4993800;28;20688;-74
2023/06/23 08:38:41;;;;;;;94.73;3.90;;;21.50;45.60;;;;;;4993333;28;20519;-74
2023/06/23 08:41:09;;;;;;;94.17;3.07;;;21.30;43.80;;;;;;4993977;28;20552;-74
2023/06/23 08:43:35;;;;;;;92.70;2.97;;;21.40;42.90;;;;;;4993866;28;20179;-74
2023/06/23 08:46:04;;;;;;;92.47;2.97;;;21.50;43.10;;;;;;4993160;28;20522;-75
2023/06/23 08:48:31;;;;;;;92.57;2.90;;;21.50;43.10;;;;;;4993510;28;20445;-75
2023/06/23 08:50:59;;;;;;;91.87;2.60;;;21.70;43.20;;;;;;4993732;28;20424;-74
2023/06/23 08:53:25;;;;;;;92.53;3.03;;;21.60;39.30;;;;;;4993581;28;20447;-74
2023/06/23 08:55:52;;;;;;;92.23;2.97;;;21.00;38.10;;;;;;4993425;28;20451;-74
2023/06/23 08:58:22;;;;;;;91.53;2.73;;;21.10;38.90;;;;;;4993304;28;20204;-74
2023/06/23 09:00:49;;;;;;;92.63;2.93;;;21.10;39.20;;;;;;4993597;28;20399;-74
2023/06/23 09:03:15;;;;;;;91.90;2.93;;;21.40;38.40;;;;;;4993469;28;20465;-74
2023/06/23 09:05:41;;;;;;;90.77;2.30;;;21.50;37.40;;;;;;4993107;28;20456;-74
2023/06/23 09:08:07;;;;;;;92.07;3.17;;;21.70;38.30;;;;;;4993108;28;20196;-74
2023/06/23 09:10:33;;;;;;;90.67;2.67;;;22.00;36.10;;;;;;4993385;28;20492;-75
2023/06/23 09:13:07;;;;;;;90.53;2.40;;;21.70;36.70;;;;;;4993224;28;20905;-74
2023/06/23 09:15:34;;;;;;;90.20;2.63;;;22.00;36.70;;;;;;4992991;28;20664;-75
2023/06/23 09:18:02;;;;;;;90.30;2.60;;;21.90;35.10;;;;;;5019633;23;20538;-70
2023/06/23 09:20:31;;;;;;;90.60;2.90;;;22.00;36.40;;;;;;5013070;28;20486;-70
2023/06/23 09:22:58;;;;;;;90.03;2.50;;;22.40;36.10;;;;;;5013557;28;20411;-71
2023/06/23 09:25:39;;;;;;;90.70;2.73;;;22.50;35.40;;;;;;5013007;28;20478;-72
2023/06/23 09:28:05;;;;;;;90.07;2.47;;;22.40;35.00;;;;;;5013270;28;20459;-72
2023/06/23 09:30:36;;;;;;;90.03;2.80;;;22.40;33.60;;;;;;5013633;28;20411;-73
2023/06/23 09:33:05;;;;;;;90.10;2.77;;;22.40;34.00;;;;;;5013044;28;20183;-73
2023/06/23 09:35:31;;;;;;;89.77;2.63;;;22.50;33.00;;;;;;5012385;28;20787;-70
2023/06/23 09:37:57;;;;;;;90.17;2.77;;;22.40;33.30;;;;;;5011990;28;20443;-73
2023/06/23 09:40:26;;;;;;;89.13;2.40;;;22.70;34.30;;;;;;5011196;28;20180;-72
2023/06/23 09:42:59;;;;;;;89.77;2.93;;;22.80;31.00;;;;;;5011210;28;20169;-72
2023/06/23 09:45:24;;;;;;;88.90;2.30;;;22.60;32.40;;;;;;5011282;28;20497;-73
2023/06/23 09:47:50;;;;;;;88.97;2.50;;;22.90;31.90;;;;;;5011521;28;20887;-73
2023/06/23 09:50:16;;;;;;;90.00;2.77;;;22.90;31.90;;;;;;5010274;28;20173;-73
2023/06/23 09:52:42;;;;;;;88.33;2.30;;;22.60;30.20;;;;;;5011596;28;20538;-70
2023/06/23 09:55:08;;;;;;;88.37;2.40;;;22.80;30.80;;;;;;5012783;28;20408;-70
2023/06/23 09:57:33;;;;;;;87.97;2.30;;;23.00;30.50;;;;;;5013570;28;20196;-70
2023/06/23 10:00:00;;;;;;;88.20;2.43;;;23.10;29.90;;;;;;5013398;28;20414;-70
2023/06/23 10:02:27;;;;;;;89.57;2.83;;;23.20;30.50;;;;;;5013192;28;20181;-70
2023/06/23 10:05:05;;;;;;;87.90;2.40;;;23.50;30.70;;;;;;5012917;28;20449;-72
2023/06/23 10:07:31;;;;;;;88.50;2.73;;;23.10;29.90;;;;;;5013390;28;20432;-73
2023/06/23 10:09:59;;;;;;;87.50;2.40;;;23.20;29.30;;;;;;5013163;28;20422;-73
2023/06/23 10:12:26;;;;;;;87.40;2.13;;;22.90;29.70;;;;;;5013439;28;20968;-73
2023/06/23 10:14:57;;;;;;;87.77;2.43;;;23.10;29.10;;;;;;5012776;28;20420;-72
2023/06/23 10:17:23;;;;;;;87.80;2.50;;;23.10;29.90;;;;;;5012936;28;20439;-72
2023/06/23 10:19:51;;;;;;;87.60;2.40;;;23.30;28.40;;;;;;5012679;28;20411;-73
2023/06/23 10:22:21;;;;;;;88.07;2.57;;;23.20;28.30;;;;;;5013026;28;20412;-73
2023/06/23 10:24:52;;;;;;;89.27;2.70;;;23.30;28.40;;;;;;5013536;28;20439;-73
2023/06/23 10:27:23;;;;;;;87.67;2.47;;;24.00;28.70;;;;;;5012863;28;20522;-73
2023/06/23 10:29:55;;;;;;;88.37;2.70;;;23.10;27.50;;;;;;5012453;28;20408;-73
2023/06/23 10:32:23;;;;;;;87.40;2.50;;;22.90;27.90;;;;;;5013165;28;20411;-72
2023/06/23 10:34:51;;;;;;;86.80;2.40;;;23.30;27.70;;;;;;5013450;28;20423;-72
2023/06/23 10:37:22;;;;;;;88.00;2.57;;;23.40;28.20;;;;;;5014729;28;20428;-72
2023/06/23 10:39:52;;;;;;;86.70;2.50;;;23.40;28.40;;;;;;5015522;28;20503;-73
2023/06/23 10:42:20;;;;;;;87.33;2.20;;;23.50;28.50;;;;;;5015148;28;20408;-74
2023/06/23 10:44:48;;;;;;;87.00;2.60;;;23.40;28.40;;;;;;5014814;28;20443;-74
2023/06/23 10:47:13;;;;;;;86.40;2.17;;;23.60;28.00;;;;;;5013862;28;20451;-73
2023/06/23 10:49:39;;;;;;;86.97;2.70;;;23.40;28.10;;;;;;5013748;28;20408;-72
2023/06/23 10:52:07;;;;;;;87.77;2.60;;;23.00;29.20;;;;;;5014010;28;20174;-72
2023/06/23 10:54:33;;;;;;;87.80;2.83;;;23.00;29.60;;;;;;5016061;28;20447;-74
2023/06/23 10:56:58;;;;;;;87.00;2.57;;;23.40;29.60;;;;;;5015259;28;20718;-74
2023/06/23 10:59:29;;;;;;;87.03;2.33;;;23.80;28.20;;;;;;5015822;28;20177;-74
2023/06/23 11:02:04;;;;;;;86.90;2.40;;;24.80;27.40;;;;;;5018495;28;20207;-74
2023/06/23 11:04:42;;;;;;;87.40;2.50;;;24.40;26.90;;;;;;5017379;28;20471;-73
2023/06/23 11:07:13;;;;;;;86.60;2.23;;;24.30;27.40;;;;;;5017027;28;20475;-72
2023/06/23 11:09:44;;;;;;;88.40;3.20;;;24.40;24.70;;;;;;5016379;28;20403;-73
2023/06/23 11:12:29;;;;;;;86.47;2.10;;;24.10;25.80;;;;;;5017037;28;20412;-73
2023/06/23 11:15:16;;;;;;;86.37;2.10;;;24.20;25.60;;;;;;5016689;28;20408;-72
2023/06/23 11:18:02;;;;;;;86.40;2.30;;;24.80;25.90;;;;;;5015768;28;20800;-72
2023/06/23 11:20:39;;;;;;;86.40;2.20;;;24.40;26.80;;;;;;5016358;28;20412;-73
2023/06/23 11:23:05;;;;;;;86.47;2.57;;;24.10;27.00;;;;;;5016762;28;20388;-73
2023/06/23 11:25:33;;;;;;;86.87;2.63;;;24.70;26.10;;;;;;5014842;28;21051;-73
2023/06/23 11:28:28;;;;;;;86.10;2.33;;;24.70;27.20;;;;;;5017038;28;20459;-73
2023/06/23 11:30:59;;;;;;;86.67;2.37;;;25.10;24.90;;;;;;5015776;28;20952;-73
2023/06/23 11:33:30;;;;;;;87.20;2.40;;;24.10;24.10;;;;;;5016065;28;20411;-73
2023/06/23 11:35:59;;;;;;;87.60;2.70;;;24.40;24.40;;;;;;5015148;28;20399;-72
2023/06/23 11:38:27;;;;;;;86.53;2.40;;;25.00;24.40;;;;;;5016327;28;20435;-73
2023/06/23 11:40:55;;;;;;;86.13;2.40;;;26.00;22.30;;;;;;5015702;28;20412;-73
2023/06/23 11:43:22;;;;;;;85.77;2.47;;;27.50;21.10;;;;;;5015942;28;20957;-73
2023/06/23 11:45:54;;;;;;;85.90;2.40;;;26.90;20.50;;;;;;5015823;28;20458;-72
2023/06/23 11:48:20;;;;;;;85.10;2.10;;;26.90;21.40;;;;;;5015295;28;20595;-73
2023/06/23 11:50:46;;;;;;;85.17;2.20;;;27.90;21.40;;;;;;5015105;28;20404;-72
2023/06/23 11:53:14;;;;;;;84.97;2.13;;;28.20;19.70;;;;;;5015572;28;20449;-70
2023/06/23 11:55:41;;;;;;;84.97;2.30;;;26.90;22.00;;;;;;5013964;28;20177;-73
2023/06/23 11:58:08;;;;;;;85.77;2.30;;;26.90;21.80;;;;;;5015487;28;20427;-73
2023/06/23 12:00:33;;;;;;;84.27;2.13;;;27.00;22.10;;;;;;5015630;28;20412;-73
2023/06/23 12:02:59;;;;;;;84.00;1.90;;;26.80;20.70;;;;;;5015666;28;20415;-73
2023/06/23 12:05:26;;;;;;;83.87;2.07;;;26.80;20.70;;;;;;5015110;28;20258;-73
2023/06/23 12:07:52;;;;;;;85.47;2.70;;;26.40;20.30;;;;;;5015704;28;20215;-72
2023/06/23 12:10:18;;;;;;;83.93;2.10;;;25.90;20.80;;;;;;5015351;28;20416;-73
2023/06/23 12:12:46;;;;;;;84.67;2.40;;;25.30;22.10;;;;;;5014166;28;20211;-73
2023/06/23 12:15:11;;;;;;;84.43;2.40;;;24.40;22.40;;;;;;5014189;28;20173;-72
2023/06/23 12:17:41;;;;;;;84.60;2.50;;;24.30;22.90;;;;;;5014270;28;20448;-72
2023/06/23 12:20:08;;;;;;;84.77;2.40;;;24.40;23.10;;;;;;5014090;28;20173;-72
2023/06/23 12:22:37;;;;;;;84.47;2.30;;;24.40;23.40;;;;;;5013902;28;20420;-72
2023/06/23 12:25:06;;;;;;;84.47;2.20;;;24.60;23.60;;;;;;5013761;28;20499;-72
2023/06/23 12:27:32;;;;;;;85.20;2.50;;;24.70;23.90;;;;;;5014097;28;20420;-73
2023/06/23 12:30:15;;;;;;;85.83;2.73;;;24.30;24.90;;;;;;5012598;28;20503;-72
2023/06/23 12:32:40;;;;;;;84.60;2.13;;;24.30;24.50;;;;;;5014111;28;20161;-72
2023/06/23 12:35:08;;;;;;;86.00;2.93;;;24.30;24.90;;;;;;5014564;28;20442;-73
2023/06/23 12:37:48;;;;;;;84.70;2.10;;;25.40;23.60;;;;;;5015003;28;20231;-73
2023/06/23 12:40:30;;;;;;;84.73;2.30;;;26.40;22.70;;;;;;5015073;28;20420;-72
2023/06/23 12:42:57;;;;;;;84.10;2.00;;;27.10;20.60;;;;;;5014579;28;20465;-72